Time;durP1;ratioP1;P1;durP2;ratioP2;P2;SDS_P1;SDS_P2;PMS_P1;PMS_P2;Temp;Humidity;BMP_temperature;BMP_pressure;BME280_temperature;BME280_humidity;BME280_pressure;Samples;Min_cycle;Max_cycle;Signal;HPM_P1;HPM_P2
2021/11/06 00:00:24;;;;;;;15.88;6.38;;;;;;;;;;5037410;28;20050;-74
2021/11/06 00:02:52;;;;;;;39.88;8.45;;;;;;;;;;5043141;28;20045;-74
2021/11/06 00:05:19;;;;;;;20.52;6.68;;;;;;;;;;5025126;28;20449;-74
2021/11/06 00:07:46;;;;;;;16.55;6.22;;;;;;;;;;5040994;28;20162;-74
2021/11/06 00:10:14;;;;;;;16.33;6.75;;;;;;;;;;5011448;28;20115;-74
2021/11/06 00:12:41;;;;;;;15.80;5.93;;;;;;;;;;5029015;28;20136;-73
2021/11/06 00:15:09;;;;;;;15.80;6.35;;;;;;;;;;5046143;28;20045;-74
2021/11/06 00:17:37;;;;;;;18.15;6.70;;;;;;;;;;5043611;28;20160;-74
2021/11/06 00:20:05;;;;;;;13.77;6.95;;;;;;;;;;5028263;28;20077;-74
2021/11/06 00:22:33;;;;;;;16.52;6.93;;;;;;;;;;5033868;28;20077;-74
2021/11/06 00:25:00;;;;;;;18.27;7.72;;;;;;;;;;5010432;28;20935;-74
2021/11/06 00:27:28;;;;;;;12.82;6.65;;;;;;;;;;5028126;28;20140;-74
2021/11/06 00:29:55;;;;;;;16.33;6.65;;;;;;;;;;5037048;28;20690;-74
2021/11/06 00:32:22;;;;;;;14.88;6.95;;;;;;;;;;5044535;28;20056;-74
2021/11/06 00:34:49;;;;;;;21.25;8.68;;;;;;;;;;5031214;28;20474;-74
2021/11/06 00:37:17;;;;;;;15.52;7.50;;;;;;;;;;5029084;28;20144;-74
2021/11/06 00:39:44;;;;;;;24.50;7.95;;;;;;;;;;5033859;28;20128;-74
2021/11/06 00:42:11;;;;;;;15.98;7.25;;;;;;;;;;5010797;28;20644;-74
2021/11/06 00:44:38;;;;;;;14.43;7.20;;;;;;;;;;5037421;28;20133;-74
2021/11/06 00:47:06;;;;;;;15.73;7.28;;;;;;;;;;5035210;28;20848;-74
2021/11/06 00:49:34;;;;;;;16.13;7.10;;;;;;;;;;5036317;28;20617;-74
2021/11/06 00:52:01;;;;;;;14.43;6.85;;;;;;;;;;5011129;28;20144;-74
2021/11/06 00:54:28;;;;;;;16.45;7.10;;;;;;;;;;5010723;28;20100;-74
2021/11/06 00:56:55;;;;;;;11.82;5.95;;;;;;;;;;5010110;28;20085;-74
2021/11/06 00:59:23;;;;;;;12.85;7.03;;;;;;;;;;5032484;28;20536;-75
2021/11/06 01:01:54;;;;;;;15.73;7.05;;;;;;;;;;5045910;28;20520;-74
2021/11/06 01:04:22;;;;;;;13.68;7.13;;;;;;;;;;5041196;28;20557;-74
2021/11/06 01:06:49;;;;;;;10.80;6.43;;;;;;;;;;5047920;28;20132;-74
2021/11/06 01:09:16;;;;;;;14.55;5.90;;;;;;;;;;5012756;28;20104;-74
2021/11/06 01:11:43;;;;;;;12.65;6.20;;;;;;;;;;5027925;28;20081;-74
2021/11/06 01:14:10;;;;;;;15.45;6.13;;;;;;;;;;5028189;28;20065;-74
2021/11/06 01:16:38;;;;;;;11.68;5.88;;;;;;;;;;5027808;28;20053;-75
2021/11/06 01:19:05;;;;;;;11.40;6.28;;;;;;;;;;5034629;28;20077;-74
2021/11/06 01:21:32;;;;;;;12.60;6.07;;;;;;;;;;5028000;28;20476;-74
2021/11/06 01:23:59;;;;;;;10.93;5.05;;;;;;;;;;5017852;28;20076;-74
2021/11/06 01:26:26;;;;;;;9.50;5.25;;;;;;;;;;5029477;28;20106;-74
2021/11/06 01:28:53;;;;;;;9.32;5.95;;;;;;;;;;5041887;28;20057;-74
2021/11/06 01:31:20;;;;;;;10.32;4.80;;;;;;;;;;5018538;28;20107;-74
2021/11/06 01:33:48;;;;;;;13.38;5.10;;;;;;;;;;5045166;28;20449;-74
2021/11/06 01:36:15;;;;;;;8.07;4.35;;;;;;;;;;5029219;28;20136;-74
2021/11/06 01:38:43;;;;;;;7.97;4.97;;;;;;;;;;5033730;28;20127;-74
2021/11/06 01:41:11;;;;;;;9.63;5.25;;;;;;;;;;5010227;28;20107;-74
2021/11/06 01:43:38;;;;;;;7.22;4.63;;;;;;;;;;5032020;28;20091;-74
2021/11/06 01:46:06;;;;;;;10.80;5.13;;;;;;;;;;5047658;28;20171;-74
2021/11/06 01:48:34;;;;;;;9.55;5.35;;;;;;;;;;5018335;28;20888;-74
2021/11/06 01:51:02;;;;;;;14.10;6.93;;;;;;;;;;5027647;28;20144;-74
2021/11/06 01:53:29;;;;;;;11.90;5.63;;;;;;;;;;5043323;28;20048;-74
2021/11/06 01:55:57;;;;;;;10.48;5.78;;;;;;;;;;5036473;28;20087;-74
2021/11/06 01:58:26;;;;;;;9.65;5.75;;;;;;;;;;5036716;28;20153;-74
2021/11/06 02:00:53;;;;;;;8.43;5.05;;;;;;;;;;5038120;28;20128;-74
2021/11/06 02:03:21;;;;;;;10.20;5.20;;;;;;;;;;5038915;28;20083;-74
2021/11/06 02:05:49;;;;;;;9.35;5.07;;;;;;;;;;5024305;28;20101;-74
2021/11/06 02:08:17;;;;;;;9.55;5.45;;;;;;;;;;5009572;28;20119;-74
2021/11/06 02:10:45;;;;;;;9.40;5.50;;;;;;;;;;5009643;28;20053;-74
2021/11/06 02:13:13;;;;;;;8.95;4.95;;;;;;;;;;5009429;28;20088;-74
2021/11/06 02:15:40;;;;;;;8.63;5.45;;;;;;;;;;5009338;28;20077;-74
2021/11/06 02:18:07;;;;;;;11.18;5.57;;;;;;;;;;5037855;28;20140;-74
2021/11/06 02:20:34;;;;;;;8.85;4.90;;;;;;;;;;5009475;28;20085;-74
2021/11/06 02:23:01;;;;;;;9.10;5.28;;;;;;;;;;5010606;28;20750;-74
2021/11/06 02:25:28;;;;;;;9.73;5.45;;;;;;;;;;5009166;28;20144;-74
2021/11/06 02:28:15;;;;;;;9.25;5.57;;;;;;;;;;5028841;28;20049;-74
2021/11/06 02:30:43;;;;;;;12.27;6.28;;;;;;;;;;5040118;28;20051;-75
2021/11/06 02:33:10;;;;;;;12.48;6.97;;;;;;;;;;5040380;28;20557;-75
2021/11/06 02:35:37;;;;;;;11.57;6.72;;;;;;;;;;5027787;28;20125;-74
2021/11/06 02:38:05;;;;;;;17.73;8.40;;;;;;;;;;5042609;28;20136;-74
2021/11/06 02:40:32;;;;;;;18.85;8.77;;;;;;;;;;5045637;28;20044;-74
2021/11/06 02:43:01;;;;;;;19.23;9.18;;;;;;;;;;5045369;28;20139;-74
2021/11/06 02:45:29;;;;;;;16.95;8.75;;;;;;;;;;5026431;28;20144;-74
2021/11/06 02:47:56;;;;;;;24.63;10.27;;;;;;;;;;5044213;28;20128;-74
2021/11/06 02:50:23;;;;;;;24.00;9.65;;;;;;;;;;5027214;28;20573;-74
2021/11/06 02:52:50;;;;;;;20.27;9.65;;;;;;;;;;5045686;28;20128;-74
2021/11/06 02:55:18;;;;;;;20.38;10.00;;;;;;;;;;5045463;28;20037;-73
2021/11/06 02:57:46;;;;;;;18.73;9.82;;;;;;;;;;5027735;28;20052;-74
2021/11/06 03:00:14;;;;;;;24.27;8.77;;;;;;;;;;5036530;28;20756;-74
2021/11/06 03:02:45;;;;;;;19.50;9.55;;;;;;;;;;5034644;28;20085;-74
2021/11/06 03:05:13;;;;;;;22.13;9.75;;;;;;;;;;5025324;28;20135;-75
2021/11/06 03:07:41;;;;;;;26.45;9.57;;;;;;;;;;5014098;28;20478;-74
2021/11/06 03:10:09;;;;;;;25.85;9.52;;;;;;;;;;5008239;28;20156;-74
2021/11/06 03:12:37;;;;;;;17.67;7.82;;;;;;;;;;5038683;28;20095;-74
2021/11/06 03:15:05;;;;;;;17.65;8.27;;;;;;;;;;5045791;28;20107;-74
2021/11/06 03:17:32;;;;;;;16.02;8.35;;;;;;;;;;5027380;28;20073;-74
2021/11/06 03:19:59;;;;;;;14.98;7.25;;;;;;;;;;5034177;28;20080;-74
2021/11/06 03:22:27;;;;;;;13.50;7.10;;;;;;;;;;5025807;28;20046;-74
2021/11/06 03:24:54;;;;;;;13.68;7.90;;;;;;;;;;5007968;28;20143;-74
2021/11/06 03:27:21;;;;;;;21.30;7.07;;;;;;;;;;5025783;28;20099;-74
2021/11/06 03:29:48;;;;;;;14.82;7.47;;;;;;;;;;5029948;28;20136;-74
2021/11/06 03:32:15;;;;;;;17.67;8.57;;;;;;;;;;5041166;28;20048;-74
2021/11/06 03:34:43;;;;;;;21.17;7.90;;;;;;;;;;5037051;28;20045;-74
2021/11/06 03:37:10;;;;;;;21.98;8.25;;;;;;;;;;5045383;28;20107;-74
2021/11/06 03:39:37;;;;;;;19.52;8.18;;;;;;;;;;5013941;28;20113;-74
2021/11/06 03:42:05;;;;;;;22.95;8.43;;;;;;;;;;5026070;28;20063;-74
2021/11/06 03:44:32;;;;;;;19.38;8.90;;;;;;;;;;5028418;28;20076;-74
2021/11/06 03:47:00;;;;;;;19.60;9.32;;;;;;;;;;5007731;28;20088;-74
2021/11/06 03:49:27;;;;;;;24.52;10.40;;;;;;;;;;5025801;28;20088;-74
2021/11/06 03:51:54;;;;;;;21.23;9.02;;;;;;;;;;5007587;28;20461;-74
2021/11/06 03:54:22;;;;;;;26.98;9.10;;;;;;;;;;5025146;28;20140;-74
2021/11/06 03:56:49;;;;;;;25.17;8.75;;;;;;;;;;5025536;28;20085;-75
2021/11/06 03:59:16;;;;;;;21.20;9.45;;;;;;;;;;5021759;28;20140;-74
2021/11/06 04:01:43;;;;;;;20.08;9.18;;;;;;;;;;5033825;28;20484;-74
2021/11/06 04:04:10;;;;;;;19.83;9.00;;;;;;;;;;5037236;28;20156;-75
2021/11/06 04:06:37;;;;;;;25.58;9.18;;;;;;;;;;5045568;28;20049;-74
2021/11/06 04:09:05;;;;;;;18.90;9.23;;;;;;;;;;5045298;28;20072;-74
2021/11/06 04:11:32;;;;;;;24.20;9.55;;;;;;;;;;5045247;28;20088;-75
2021/11/06 04:13:59;;;;;;;15.75;9.30;;;;;;;;;;5033473;28;20207;-75
2021/11/06 04:16:27;;;;;;;18.95;8.70;;;;;;;;;;5039203;28;20175;-74
2021/11/06 04:18:54;;;;;;;15.32;8.15;;;;;;;;;;5040006;28;20077;-74
2021/11/06 04:21:21;;;;;;;17.60;8.10;;;;;;;;;;5048843;28;20045;-74
2021/11/06 04:23:48;;;;;;;17.25;8.40;;;;;;;;;;5048990;28;20123;-74
2021/11/06 04:26:15;;;;;;;25.08;7.95;;;;;;;;;;5046982;28;20481;-74
2021/11/06 04:28:43;;;;;;;15.70;6.80;;;;;;;;;;5045552;28;20063;-75
2021/11/06 04:31:10;;;;;;;13.90;7.53;;;;;;;;;;5043316;28;20144;-75
2021/11/06 04:33:37;;;;;;;17.42;7.35;;;;;;;;;;5040550;28;20135;-75
2021/11/06 04:36:06;;;;;;;14.00;6.75;;;;;;;;;;5028894;28;20148;-75
2021/11/06 04:38:34;;;;;;;12.02;6.80;;;;;;;;;;5013927;28;20156;-74
2021/11/06 04:41:01;;;;;;;15.30;7.30;;;;;;;;;;5042899;28;20048;-74
2021/11/06 04:43:28;;;;;;;14.23;7.15;;;;;;;;;;5046217;28;20128;-74
2021/11/06 04:45:55;;;;;;;16.63;7.10;;;;;;;;;;5044622;28;20087;-74
2021/11/06 04:48:22;;;;;;;14.68;7.20;;;;;;;;;;5046576;28;20095;-74
2021/11/06 04:50:49;;;;;;;15.73;7.43;;;;;;;;;;5044733;28;20049;-74
2021/11/06 04:53:16;;;;;;;13.95;7.28;;;;;;;;;;5030701;28;20546;-75
2021/11/06 04:55:43;;;;;;;16.83;8.57;;;;;;;;;;5030459;28;20728;-74
2021/11/06 04:58:11;;;;;;;14.25;7.97;;;;;;;;;;5030009;28;20148;-74
2021/11/06 05:00:38;;;;;;;17.13;7.88;;;;;;;;;;5038757;28;20563;-74
2021/11/06 05:03:05;;;;;;;20.95;8.15;;;;;;;;;;5039110;28;20053;-74
2021/11/06 05:05:32;;;;;;;21.60;8.27;;;;;;;;;;5012533;28;20397;-74
2021/11/06 05:08:00;;;;;;;21.55;7.97;;;;;;;;;;5032896;28;20136;-74
2021/11/06 05:10:27;;;;;;;15.85;8.57;;;;;;;;;;5028547;28;20049;-74
2021/11/06 05:12:54;;;;;;;17.67;8.45;;;;;;;;;;5028679;28;20085;-74
2021/11/06 05:15:21;;;;;;;15.05;7.50;;;;;;;;;;5046874;28;20048;-74
2021/11/06 05:17:48;;;;;;;21.23;8.65;;;;;;;;;;5037383;28;20546;-74
2021/11/06 05:20:15;;;;;;;16.30;8.48;;;;;;;;;;5046476;28;20053;-74
2021/11/06 05:22:42;;;;;;;19.10;8.63;;;;;;;;;;5030478;28;20175;-74
2021/11/06 05:25:10;;;;;;;16.30;8.48;;;;;;;;;;5048032;28;20055;-74
2021/11/06 05:27:37;;;;;;;16.63;8.30;;;;;;;;;;5038796;28;20052;-74
2021/11/06 05:30:06;;;;;;;21.63;8.55;;;;;;;;;;5036873;28;20051;-74
2021/11/06 05:32:34;;;;;;;18.90;8.70;;;;;;;;;;5043830;28;20670;-74
2021/11/06 05:35:01;;;;;;;32.22;9.88;;;;;;;;;;5041574;28;20204;-74
2021/11/06 05:37:28;;;;;;;22.42;9.02;;;;;;;;;;5040642;28;20049;-74
2021/11/06 05:39:55;;;;;;;19.52;8.48;;;;;;;;;;5024922;28;20077;-74
2021/11/06 05:42:22;;;;;;;26.35;9.00;;;;;;;;;;5047250;28;20051;-74
2021/11/06 05:44:50;;;;;;;20.13;8.48;;;;;;;;;;5047211;28;20513;-75
2021/11/06 05:47:17;;;;;;;25.13;8.80;;;;;;;;;;5029112;28;20140;-74
2021/11/06 05:49:44;;;;;;;14.57;8.20;;;;;;;;;;5047280;28;20132;-74
2021/11/06 05:52:31;;;;;;;21.25;9.90;;;;;;;;;;5038984;28;20053;-74
2021/11/06 05:54:58;;;;;;;24.13;8.75;;;;;;;;;;5024826;28;20084;-74
2021/11/06 05:57:25;;;;;;;16.40;8.45;;;;;;;;;;5040397;28;20049;-74
2021/11/06 05:59:52;;;;;;;33.08;10.80;;;;;;;;;;5025843;28;20076;-74
2021/11/06 06:02:20;;;;;;;24.50;8.98;;;;;;;;;;5037844;28;20087;-74
2021/11/06 06:04:47;;;;;;;19.80;9.45;;;;;;;;;;5036340;28;20072;-74
2021/11/06 06:07:18;;;;;;;18.23;9.40;;;;;;;;;;5025698;28;20100;-74
2021/11/06 06:09:45;;;;;;;26.10;10.75;;;;;;;;;;5045798;28;20048;-74
2021/11/06 06:12:12;;;;;;;24.30;10.23;;;;;;;;;;5030223;28;20084;-74
2021/11/06 06:14:40;;;;;;;20.33;9.90;;;;;;;;;;5050649;22;20139;-74
2021/11/06 06:17:08;;;;;;;19.35;9.63;;;;;;;;;;5047342;28;20044;-74
2021/11/06 06:19:35;;;;;;;25.40;10.75;;;;;;;;;;5046127;28;20140;-74
2021/11/06 06:22:02;;;;;;;25.05;10.20;;;;;;;;;;5064756;28;20079;-74
2021/11/06 06:24:29;;;;;;;28.92;11.35;;;;;;;;;;5048027;28;20140;-74
2021/11/06 06:26:56;;;;;;;20.10;9.93;;;;;;;;;;5057744;28;20171;-74
2021/11/06 06:29:23;;;;;;;19.52;10.75;;;;;;;;;;5029744;28;20148;-74
2021/11/06 06:31:51;;;;;;;33.97;11.75;;;;;;;;;;5033339;28;20082;-74
2021/11/06 06:34:19;;;;;;;20.27;9.90;;;;;;;;;;5046898;28;20139;-74
2021/11/06 06:36:46;;;;;;;28.67;10.63;;;;;;;;;;5054581;28;20487;-74
2021/11/06 06:39:13;;;;;;;30.00;10.50;;;;;;;;;;5015471;28;20044;-74
2021/11/06 06:41:41;;;;;;;21.17;10.70;;;;;;;;;;5066551;28;20127;-75
2021/11/06 06:44:08;;;;;;;23.20;10.45;;;;;;;;;;5061955;28;20129;-74
2021/11/06 06:46:35;;;;;;;30.10;11.50;;;;;;;;;;5056755;28;20202;-74
2021/11/06 06:49:02;;;;;;;22.95;10.68;;;;;;;;;;5062274;28;20523;-73
2021/11/06 06:51:30;;;;;;;24.70;10.18;;;;;;;;;;5041867;28;20140;-73
2021/11/06 06:53:57;;;;;;;26.25;11.00;;;;;;;;;;5052250;28;20049;-73
2021/11/06 06:56:24;;;;;;;23.73;10.05;;;;;;;;;;5046288;28;20154;-73
2021/11/06 06:58:51;;;;;;;30.10;10.35;;;;;;;;;;5050221;28;20127;-74
2021/11/06 07:01:18;;;;;;;20.27;9.82;;;;;;;;;;5049288;28;20151;-74
2021/11/06 07:03:46;;;;;;;22.10;10.38;;;;;;;;;;5050134;28;20156;-73
2021/11/06 07:06:13;;;;;;;27.45;10.40;;;;;;;;;;5052148;28;20136;-73
2021/11/06 07:08:40;;;;;;;23.67;10.90;;;;;;;;;;5047427;28;20099;-73
2021/11/06 07:11:07;;;;;;;24.52;10.35;;;;;;;;;;5050350;28;20083;-74
2021/11/06 07:13:36;;;;;;;23.58;10.27;;;;;;;;;;5056511;28;20056;-73
2021/11/06 07:16:04;;;;;;;23.88;9.13;;;;;;;;;;5028165;28;20073;-72
2021/11/06 07:18:31;;;;;;;28.25;11.07;;;;;;;;;;5051052;28;20049;-73
2021/11/06 07:20:58;;;;;;;18.80;9.75;;;;;;;;;;5046341;28;20068;-73
2021/11/06 07:23:25;;;;;;;19.90;9.38;;;;;;;;;;5057317;28;20374;-74
2021/11/06 07:25:59;;;;;;;23.30;10.23;;;;;;;;;;5047241;28;20080;-74
2021/11/06 07:28:27;;;;;;;28.20;9.65;;;;;;;;;;5054596;28;20049;-74
2021/11/06 07:30:54;;;;;;;25.30;9.27;;;;;;;;;;5028059;28;20080;-74
2021/11/06 07:33:21;;;;;;;22.20;9.88;;;;;;;;;;5031954;28;20131;-73
2021/11/06 07:35:48;;;;;;;19.50;8.55;;;;;;;;;;5045960;28;20167;-74
2021/11/06 07:38:15;;;;;;;15.52;8.13;;;;;;;;;;5048777;28;20127;-74
2021/11/06 07:40:43;;;;;;;17.45;8.50;;;;;;;;;;5058859;28;20128;-74
2021/11/06 07:43:11;;;;;;;25.75;8.02;;;;;;;;;;5048742;28;20798;-74
2021/11/06 07:45:40;;;;;;;17.70;8.07;;;;;;;;;;5047244;28;20132;-73
2021/11/06 07:48:07;;;;;;;15.43;6.95;;;;;;;;;;5051035;28;20427;-75
2021/11/06 07:50:35;;;;;;;20.52;7.60;;;;;;;;;;5045665;28;20537;-74
2021/11/06 07:53:02;;;;;;;16.60;8.07;;;;;;;;;;5047337;28;20144;-74
2021/11/06 07:55:29;;;;;;;19.13;8.32;;;;;;;;;;5049700;28;20491;-74
2021/11/06 07:57:56;;;;;;;21.73;7.70;;;;;;;;;;5053337;28;20136;-74
2021/11/06 08:00:26;;;;;;;25.40;8.82;;;;;;;;;;5032085;28;20105;-75
2021/11/06 08:02:53;;;;;;;22.50;8.30;;;;;;;;;;5050955;28;20545;-74
2021/11/06 08:05:21;;;;;;;14.48;7.43;;;;;;;;;;5054518;28;20110;-75
2021/11/06 08:07:49;;;;;;;22.45;8.43;;;;;;;;;;5052622;28;20107;-75
2021/11/06 08:10:16;;;;;;;17.17;8.15;;;;;;;;;;5049027;28;20072;-75
2021/11/06 08:12:50;;;;;;;23.58;8.20;;;;;;;;;;5053827;28;20552;-81
2021/11/06 08:15:18;;;;;;;25.05;8.43;;;;;;;;;;5045383;28;20122;-81
2021/11/06 08:17:45;;;;;;;20.85;7.47;;;;;;;;;;5054605;28;20084;-84
2021/11/06 08:20:12;;;;;;;17.92;8.02;;;;;;;;;;5054453;28;20128;-84
2021/11/06 08:22:40;;;;;;;18.02;7.70;;;;;;;;;;5054463;28;20140;-82
2021/11/06 08:25:08;;;;;;;25.35;8.13;;;;;;;;;;5054348;28;20099;-84
2021/11/06 08:27:36;;;;;;;21.25;7.72;;;;;;;;;;5066213;28;20044;-82
2021/11/06 08:30:06;;;;;;;17.30;8.40;;;;;;;;;;5055481;28;20132;-83
2021/11/06 08:32:33;;;;;;;15.73;7.57;;;;;;;;;;5036675;28;20077;-84
2021/11/06 08:35:02;;;;;;;15.88;7.25;;;;;;;;;;5041428;28;20108;-82
2021/11/06 08:37:44;;;;;;;31.52;10.82;;;;;;;;;;5038730;28;20068;-83
2021/11/06 08:40:12;;;;;;;14.38;7.40;;;;;;;;;;5060365;28;20071;-83
2021/11/06 08:42:39;;;;;;;16.63;8.90;;;;;;;;;;5055195;28;20502;-84
2021/11/06 08:45:08;;;;;;;18.52;7.57;;;;;;;;;;5071892;28;20097;-83
2021/11/06 08:47:36;;;;;;;22.25;8.55;;;;;;;;;;5074170;28;20135;-84
2021/11/06 08:50:08;;;;;;;16.20;7.50;;;;;;;;;;5071327;28;20127;-83
2021/11/06 08:52:35;;;;;;;15.57;7.22;;;;;;;;;;5034313;28;20136;-83
2021/11/06 08:55:03;;;;;;;18.85;7.45;;;;;;;;;;5058050;28;20069;-83
2021/11/06 08:57:35;;;;;;;15.48;8.00;;;;;;;;;;5039718;28;20076;-83
2021/11/06 09:00:06;;;;;;;21.70;8.48;;;;;;;;;;5029612;28;20441;-82
2021/11/06 09:02:34;;;;;;;22.73;10.18;;;;;;;;;;5051718;28;20084;-84
2021/11/06 09:05:05;;;;;;;21.05;8.77;;;;;;;;;;5051809;28;20671;-83
2021/11/06 09:07:35;;;;;;;24.15;9.50;;;;;;;;;;5052395;28;20478;-83
2021/11/06 09:10:07;;;;;;;17.23;9.80;;;;;;;;;;5051845;28;20045;-84
2021/11/06 09:12:42;;;;;;;17.20;9.73;;;;;;;;;;5049591;28;20095;-84
2021/11/06 09:15:09;;;;;;;;;;;;;;;;;;5037680;28;20053;-83
2021/11/06 09:17:37;;;;;;;19.50;11.02;;;;;;;;;;5050988;28;19994;-83
2021/11/06 09:20:06;;;;;;;31.42;10.85;;;;;;;;;;5046697;28;20124;-78
2021/11/06 09:22:35;;;;;;;38.33;12.20;;;;;;;;;;5046386;28;20076;-82
2021/11/06 09:25:03;;;;;;;19.17;10.38;;;;;;;;;;5049222;28;20052;-82
2021/11/06 09:27:32;;;;;;;18.90;10.70;;;;;;;;;;5036214;28;20122;-82
2021/11/06 09:29:59;;;;;;;21.77;10.60;;;;;;;;;;5049748;28;20092;-82
2021/11/06 09:32:27;;;;;;;33.17;11.40;;;;;;;;;;5050014;28;20099;-81
2021/11/06 09:34:54;;;;;;;19.55;10.45;;;;;;;;;;5049630;28;20144;-81
2021/11/06 09:37:21;;;;;;;25.90;11.02;;;;;;;;;;5049380;28;20088;-81
2021/11/06 09:39:48;;;;;;;46.03;11.30;;;;;;;;;;5030740;28;20053;-81
2021/11/06 09:42:16;;;;;;;25.30;11.23;;;;;;;;;;5048461;28;20075;-82
2021/11/06 09:44:44;;;;;;;19.65;10.07;;;;;;;;;;5048801;28;20065;-81
2021/11/06 09:47:12;;;;;;;18.25;10.68;;;;;;;;;;5051232;28;20496;-81
2021/11/06 09:49:43;;;;;;;21.08;9.80;;;;;;;;;;5051323;28;20105;-81
2021/11/06 09:52:12;;;;;;;19.85;10.10;;;;;;;;;;5051441;28;20053;-80
2021/11/06 09:54:40;;;;;;;17.75;11.07;;;;;;;;;;5048575;28;20507;-81
2021/11/06 09:57:08;;;;;;;17.70;9.82;;;;;;;;;;5051080;28;20146;-81
2021/11/06 09:59:36;;;;;;;18.95;9.32;;;;;;;;;;5050591;28;20096;-73
2021/11/06 10:02:03;;;;;;;28.38;9.98;;;;;;;;;;5034326;28;20133;-72
2021/11/06 10:04:31;;;;;;;17.48;9.00;;;;;;;;;;5033328;28;20919;-73
2021/11/06 10:07:14;;;;;;;17.35;8.95;;;;;;;;;;5037581;28;20129;-72
2021/11/06 10:09:41;;;;;;;17.50;8.65;;;;;;;;;;5036851;28;20172;-72
2021/11/06 10:12:08;;;;;;;21.92;9.00;;;;;;;;;;5040757;28;20144;-73
2021/11/06 10:14:36;;;;;;;19.63;8.68;;;;;;;;;;5040055;28;20051;-73
2021/11/06 10:17:04;;;;;;;17.65;8.50;;;;;;;;;;5036329;28;20591;-73
2021/11/06 10:19:32;;;;;;;27.13;10.43;;;;;;;;;;5022372;28;20124;-73
2021/11/06 10:22:09;;;;;;;16.50;8.65;;;;;;;;;;5039765;28;20132;-73
2021/11/06 10:24:44;;;;;;;17.60;8.50;;;;;;;;;;5038261;28;20132;-73
2021/11/06 10:27:31;;;;;;;16.23;8.00;;;;;;;;;;5039915;28;20204;-74
2021/11/06 10:30:02;;;;;;;20.70;8.73;;;;;;;;;;5040779;28;20550;-73
2021/11/06 10:32:30;;;;;;;14.85;8.82;;;;;;;;;;5040249;28;20045;-72
2021/11/06 10:35:10;;;;;;;15.88;9.30;;;;;;;;;;5031312;28;20139;-73
2021/11/06 10:37:38;;;;;;;30.02;9.77;;;;;;;;;;5029042;28;20567;-72
2021/11/06 10:40:09;;;;;;;20.55;9.40;;;;;;;;;;5035411;28;20085;-72
2021/11/06 10:42:47;;;;;;;25.15;10.18;;;;;;;;;;5041952;28;20041;-72
2021/11/06 10:45:18;;;;;;;24.83;10.48;;;;;;;;;;5030054;28;20508;-72
2021/11/06 10:48:05;;;;;;;27.88;10.75;;;;;;;;;;5035950;28;20599;-72
2021/11/06 10:50:43;;;;;;;31.33;11.48;;;;;;;;;;5043302;28;20049;-72
2021/11/06 10:53:12;;;;;;;22.58;10.40;;;;;;;;;;5044669;28;20591;-72
2021/11/06 10:55:41;;;;;;;26.38;12.07;;;;;;;;;;5037487;28;20055;-72
2021/11/06 10:58:29;;;;;;;22.52;10.95;;;;;;;;;;5037926;28;20048;-72
2021/11/06 11:00:56;;;;;;;26.63;11.82;;;;;;;;;;5030957;28;20060;-72
2021/11/06 11:03:28;;;;;;;28.05;12.32;;;;;;;;;;5043595;28;20047;-73
2021/11/06 11:05:56;;;;;;;25.80;12.13;;;;;;;;;;5042500;28;20139;-72
2021/11/06 11:08:25;;;;;;;26.85;12.82;;;;;;;;;;5026361;28;20059;-72
2021/11/06 11:10:52;;;;;;;31.95;12.77;;;;;;;;;;5036322;28;20132;-73
2021/11/06 11:13:21;;;;;;;29.98;13.50;;;;;;;;;;5045503;28;20058;-73
2021/11/06 11:15:52;;;;;;;36.08;14.40;;;;;;;;;;5027104;28;20049;-73
2021/11/06 11:18:30;;;;;;;38.38;14.93;;;;;;;;;;5043092;28;20842;-74
2021/11/06 11:21:09;;;;;;;35.85;14.85;;;;;;;;;;5044201;28;20045;-74
2021/11/06 11:23:37;;;;;;;36.85;14.98;;;;;;;;;;5031522;28;20092;-73
2021/11/06 11:26:04;;;;;;;40.33;15.00;;;;;;;;;;5033042;28;20120;-74
2021/11/06 11:28:32;;;;;;;38.15;16.85;;;;;;;;;;5038636;28;20089;-74
2021/11/06 11:31:00;;;;;;;32.88;15.23;;;;;;;;;;5042960;28;20049;-74
2021/11/06 11:33:41;;;;;;;29.55;16.13;;;;;;;;;;5043669;28;20049;-73
2021/11/06 11:36:10;;;;;;;36.35;15.95;;;;;;;;;;5041397;28;20125;-73
2021/11/06 11:38:38;;;;;;;34.47;15.52;;;;;;;;;;5040524;28;20041;-73
2021/11/06 11:41:14;;;;;;;33.25;15.20;;;;;;;;;;5033951;28;20691;-73
2021/11/06 11:43:41;;;;;;;39.42;15.85;;;;;;;;;;5037005;28;20080;-73
2021/11/06 11:46:12;;;;;;;37.78;15.95;;;;;;;;;;5042366;28;20125;-73
2021/11/06 11:48:39;;;;;;;34.95;16.38;;;;;;;;;;5036112;28;20110;-74
2021/11/06 11:51:07;;;;;;;35.92;15.75;;;;;;;;;;5029321;28;20057;-74
2021/11/06 11:53:35;;;;;;;37.47;15.60;;;;;;;;;;5038515;28;20141;-74
2021/11/06 11:56:14;;;;;;;33.47;14.57;;;;;;;;;;5044349;28;20053;-74
2021/11/06 11:58:42;;;;;;;31.10;15.52;;;;;;;;;;5042496;28;20158;-73
2021/11/06 12:01:18;;;;;;;36.58;17.33;;;;;;;;;;5038480;28;20128;-73
2021/11/06 12:03:46;;;;;;;31.65;15.35;;;;;;;;;;5045607;28;20049;-73
2021/11/06 12:06:22;;;;;;;35.10;16.02;;;;;;;;;;5034921;28;20048;-73
2021/11/06 12:08:53;;;;;;;35.97;15.85;;;;;;;;;;5037357;28;20048;-73
2021/11/06 12:11:23;;;;;;;34.40;16.00;;;;;;;;;;5037241;28;20115;-74
2021/11/06 12:13:56;;;;;;;35.70;15.57;;;;;;;;;;5048203;28;20072;-74
2021/11/06 12:16:24;;;;;;;36.13;17.27;;;;;;;;;;5036634;28;20130;-83
2021/11/06 12:18:55;;;;;;;33.00;16.67;;;;;;;;;;5051191;28;20115;-83
2021/11/06 12:21:28;;;;;;;33.28;17.33;;;;;;;;;;5050901;28;20049;-83
2021/11/06 12:23:57;;;;;;;34.58;16.85;;;;;;;;;;5050216;28;20083;-83
2021/11/06 12:26:26;;;;;;;37.88;17.05;;;;;;;;;;5049675;28;20087;-83
2021/11/06 12:29:14;;;;;;;31.45;17.20;;;;;;;;;;5043200;28;20041;-82
2021/11/06 12:31:47;;;;;;;39.80;18.38;;;;;;;;;;5034256;28;20053;-83
2021/11/06 12:34:35;;;;;;;38.85;17.23;;;;;;;;;;5048605;28;21972;-83
2021/11/06 12:37:05;;;;;;;35.25;17.80;;;;;;;;;;5052008;28;20486;-83
2021/11/06 12:39:49;;;;;;;35.45;17.50;;;;;;;;;;5052301;28;20120;-83
2021/11/06 12:42:18;;;;;;;44.20;18.77;;;;;;;;;;5052781;28;20132;-83
2021/11/06 12:45:00;;;;;;;36.25;16.40;;;;;;;;;;5058157;28;20075;-83
2021/11/06 12:47:32;;;;;;;40.78;18.17;;;;;;;;;;5049723;28;20521;-83
2021/11/06 12:50:14;;;;;;;33.55;17.70;;;;;;;;;;5048844;28;20124;-83
2021/11/06 12:52:43;;;;;;;37.15;17.98;;;;;;;;;;5047365;28;20095;-83
2021/11/06 12:55:13;;;;;;;37.25;17.23;;;;;;;;;;5046405;28;20469;-83
2021/11/06 12:57:41;;;;;;;37.35;17.48;;;;;;;;;;5035119;28;20683;-83
2021/11/06 13:00:14;;;;;;;41.60;17.77;;;;;;;;;;5035308;28;20053;-83
2021/11/06 13:02:55;;;;;;;40.13;18.17;;;;;;;;;;5052191;28;20151;-83
2021/11/06 13:05:24;;;;;;;38.67;17.30;;;;;;;;;;5032135;28;20083;-83
2021/11/06 13:07:51;;;;;;;36.45;17.55;;;;;;;;;;5049731;28;20118;-84
2021/11/06 13:10:21;;;;;;;39.38;17.55;;;;;;;;;;5051292;28;20864;-82
2021/11/06 13:13:30;;;;;;;38.80;17.55;;;;;;;;;;5052822;28;20072;-82
2021/11/06 13:15:58;;;;;;;37.08;16.38;;;;;;;;;;4971253;28;20141;-82
2021/11/06 13:18:27;;;;;;;33.00;15.73;;;;;;;;;;4969568;28;20125;-83
2021/11/06 13:20:56;;;;;;;31.10;16.48;;;;;;;;;;5008794;28;20851;-85
2021/11/06 13:23:23;;;;;;;40.17;17.33;;;;;;;;;;5027671;28;20057;-84
2021/11/06 13:25:51;;;;;;;31.23;16.75;;;;;;;;;;5049850;28;20110;-82
2021/11/06 13:28:23;;;;;;;29.27;16.20;;;;;;;;;;5033472;28;20112;-82
2021/11/06 13:30:59;;;;;;;36.55;16.35;;;;;;;;;;5049632;28;20429;-82
2021/11/06 13:33:31;;;;;;;32.53;16.50;;;;;;;;;;5032699;28;20135;-81
2021/11/06 13:36:02;;;;;;;28.63;15.30;;;;;;;;;;5043919;28;20131;-81
2021/11/06 13:38:35;;;;;;;33.47;16.65;;;;;;;;;;5031228;28;20080;-82
2021/11/06 13:41:06;;;;;;;33.60;15.82;;;;;;;;;;5057345;28;20072;-84
2021/11/06 13:43:36;;;;;;;36.28;17.17;;;;;;;;;;5052777;28;20148;-84
2021/11/06 13:46:14;;;;;;;29.08;15.95;;;;;;;;;;5045038;28;20040;-82
2021/11/06 13:49:00;;;;;;;32.42;16.40;;;;;;;;;;5042967;28;20063;-75
2021/11/06 13:51:28;;;;;;;35.63;16.58;;;;;;;;;;5041604;28;20101;-75
2021/11/06 13:53:58;;;;;;;32.50;16.13;;;;;;;;;;5046314;28;20108;-75
2021/11/06 13:56:28;;;;;;;35.08;17.25;;;;;;;;;;5039092;28;20052;-75
2021/11/06 13:58:59;;;;;;;39.40;16.27;;;;;;;;;;5042865;28;20386;-75
2021/11/06 14:01:27;;;;;;;31.48;16.73;;;;;;;;;;5042348;28;20139;-74
2021/11/06 14:03:57;;;;;;;35.78;16.75;;;;;;;;;;5043349;28;20047;-74
2021/11/06 14:06:24;;;;;;;39.78;18.20;;;;;;;;;;5036654;28;20152;-74
2021/11/06 14:09:05;;;;;;;33.53;17.30;;;;;;;;;;5037302;28;20056;-74
2021/11/06 14:11:45;;;;;;;40.30;17.38;;;;;;;;;;5040902;28;20131;-74
2021/11/06 14:14:12;;;;;;;36.80;16.90;;;;;;;;;;5039547;28;20666;-74
2021/11/06 14:16:39;;;;;;;33.53;17.00;;;;;;;;;;5037662;28;20215;-74
2021/11/06 14:19:07;;;;;;;37.53;17.17;;;;;;;;;;5034087;28;20152;-74
2021/11/06 14:21:39;;;;;;;31.00;17.25;;;;;;;;;;5031417;28;20129;-74
2021/11/06 14:24:07;;;;;;;31.42;17.60;;;;;;;;;;5041842;28;20059;-74
2021/11/06 14:26:43;;;;;;;36.00;17.45;;;;;;;;;;5033568;28;20944;-74
2021/11/06 14:29:11;;;;;;;37.65;18.40;;;;;;;;;;5042920;28;20589;-81
2021/11/06 14:31:50;;;;;;;32.00;17.98;;;;;;;;;;5050800;28;20136;-81
2021/11/06 14:34:18;;;;;;;32.22;16.25;;;;;;;;;;5049309;28;20055;-82
2021/11/06 14:37:08;;;;;;;38.58;18.02;;;;;;;;;;5050739;28;20553;-81